createdAt,value
2019-05-01T00:00:25.624Z,0.00
2019-05-01T00:01:25.834Z,0.00
2019-05-01T00:02:26.021Z,0.00
2019-05-01T00:03:26.196Z,0.00
2019-05-01T00:04:26.366Z,0.00
2019-05-01T00:05:26.570Z,0.00
2019-05-01T00:06:26.741Z,0.00
2019-05-01T00:07:26.894Z,0.00
2019-05-01T00:08:27.041Z,0.00
2019-05-01T00:09:27.192Z,0.00
2019-05-01T00:10:27.402Z,0.00
2019-05-01T00:11:27.562Z,0.00
2019-05-01T00:12:27.703Z,0.00
2019-05-01T00:13:27.853Z,0.00
2019-05-01T00:14:27.977Z,0.00
2019-05-01T00:15:28.105Z,0.00
2019-05-01T00:16:28.256Z,0.00
2019-05-01T00:17:28.410Z,0.00
2019-05-01T00:18:28.579Z,0.00
2019-05-01T00:19:28.714Z,0.00
2019-05-01T00:20:29.533Z,0.00
2019-05-01T00:21:29.544Z,0.00
2019-05-01T00:22:29.286Z,0.00
2019-05-01T00:23:29.474Z,0.00
2019-05-01T00:24:30.521Z,0.00
2019-05-01T00:25:30.533Z,0.00
2019-05-01T00:26:29.942Z,0.00
2019-05-01T00:27:30.087Z,0.00
2019-05-01T00:28:30.235Z,0.00
2019-05-01T00:29:30.352Z,0.00
2019-05-01T00:30:30.513Z,0.00
2019-05-01T00:31:30.677Z,0.00
2019-05-01T00:32:30.858Z,0.00
2019-05-01T00:33:30.995Z,0.00
2019-05-01T00:34:32.040Z,0.00
2019-05-01T00:35:31.303Z,0.00
2019-05-01T00:36:31.450Z,0.00
2019-05-01T00:37:31.612Z,0.00
2019-05-01T00:38:31.765Z,0.00
2019-05-01T00:39:31.893Z,0.00
2019-05-01T00:40:32.046Z,0.00
2019-05-01T00:41:33.038Z,0.00
2019-05-01T00:42:32.401Z,0.00
2019-05-01T00:43:32.588Z,0.00
2019-05-01T00:44:32.733Z,0.00
2019-05-01T00:45:32.861Z,0.00
2019-05-01T00:46:33.038Z,0.00
2019-05-01T00:47:33.155Z,0.00
2019-05-01T00:48:34.335Z,0.00
2019-05-01T00:49:34.032Z,0.00
2019-05-01T00:50:33.651Z,0.00
2019-05-01T00:51:34.911Z,0.00
2019-05-01T00:52:34.020Z,0.00
2019-05-01T00:53:34.200Z,0.00
2019-05-01T00:54:34.553Z,0.00
2019-05-01T00:55:35.046Z,0.00
2019-05-01T00:56:34.780Z,0.00
2019-05-01T00:57:34.934Z,0.00
2019-05-01T00:58:36.034Z,0.00
2019-05-01T00:59:35.260Z,0.00
2019-05-01T01:00:42.864Z,0.00
2019-05-01T01:01:37.549Z,0.00
2019-05-01T01:02:35.803Z,0.00
2019-05-01T01:03:35.909Z,0.00
2019-05-01T01:04:36.059Z,0.00
2019-05-01T01:05:36.261Z,0.00
2019-05-01T01:06:36.418Z,0.00
2019-05-01T01:07:36.585Z,0.00
2019-05-01T01:08:36.805Z,0.00
2019-05-01T01:09:36.990Z,0.00
2019-05-01T01:10:37.195Z,0.00
2019-05-01T01:11:37.379Z,0.00
2019-05-01T01:12:37.575Z,0.00
2019-05-01T01:13:37.746Z,0.00
2019-05-01T01:14:37.916Z,0.00
2019-05-01T01:15:38.071Z,0.00
2019-05-01T01:16:38.245Z,0.00
2019-05-01T01:17:38.374Z,0.00
2019-05-01T01:18:38.523Z,0.00
2019-05-01T01:19:38.692Z,0.00
2019-05-01T01:20:38.868Z,0.00
2019-05-01T01:21:39.033Z,0.00
2019-05-01T01:22:39.187Z,0.00
2019-05-01T01:23:39.375Z,0.00
2019-05-01T01:24:39.546Z,0.00
2019-05-01T01:25:39.724Z,0.00
2019-05-01T01:26:39.907Z,0.00
2019-05-01T01:27:40.068Z,0.00
2019-05-01T01:28:40.229Z,0.00
2019-05-01T01:29:40.390Z,0.00
2019-05-01T01:30:40.580Z,0.00
2019-05-01T01:31:40.786Z,0.00
2019-05-01T01:32:40.937Z,0.00
2019-05-01T01:33:41.098Z,0.00
2019-05-01T01:34:41.249Z,0.00
2019-05-01T01:35:42.056Z,0.00
2019-05-01T01:36:41.628Z,0.00
2019-05-01T01:37:41.826Z,0.00
2019-05-01T01:38:42.017Z,0.00
2019-05-01T01:39:43.027Z,0.00
2019-05-01T01:40:42.339Z,0.00
2019-05-01T01:41:42.540Z,0.00
2019-05-01T01:42:43.535Z,0.00
2019-05-01T01:43:42.943Z,0.00
2019-05-01T01:44:43.089Z,0.00
2019-05-01T01:45:44.032Z,0.00
2019-05-01T01:46:43.496Z,0.00
2019-05-01T01:47:44.059Z,0.00
2019-05-01T01:48:43.864Z,0.00
2019-05-01T01:49:44.077Z,0.00
2019-05-01T01:50:44.255Z,0.00
2019-05-01T01:51:44.420Z,0.00
2019-05-01T01:52:44.647Z,0.00
2019-05-01T01:53:44.815Z,0.00
2019-05-01T01:54:45.531Z,0.00
2019-05-01T01:55:45.149Z,0.00
2019-05-01T01:56:45.330Z,0.00
2019-05-01T01:57:45.505Z,0.00
2019-05-01T01:58:46.533Z,0.00
2019-05-01T01:59:45.961Z,0.00
2019-05-01T02:00:47.045Z,0.00
2019-05-01T02:01:47.036Z,0.00
2019-05-01T02:02:47.031Z,0.00
2019-05-01T02:03:46.650Z,0.00
2019-05-01T02:04:46.830Z,0.00
2019-05-01T02:05:47.015Z,0.00
2019-05-01T02:06:47.157Z,0.00
2019-05-01T02:07:47.320Z,0.00
2019-05-01T02:08:56.203Z,0.00
2019-05-01T02:09:50.541Z,0.00
2019-05-01T02:10:47.866Z,0.00
2019-05-01T02:11:48.030Z,0.00
2019-05-01T02:12:49.029Z,0.00
2019-05-01T02:13:48.430Z,0.00
2019-05-01T02:14:48.570Z,0.00
2019-05-01T02:15:48.722Z,0.00
2019-05-01T02:16:48.867Z,0.00
2019-05-01T02:17:49.022Z,0.00
2019-05-01T02:18:49.201Z,0.00
2019-05-01T02:19:49.358Z,0.00
2019-05-01T02:20:49.514Z,0.00
2019-05-01T02:21:49.676Z,0.00
2019-05-01T02:22:49.809Z,0.00
2019-05-01T02:23:50.004Z,0.00
2019-05-01T02:24:50.151Z,0.00
2019-05-01T02:25:50.288Z,0.00
2019-05-01T02:26:50.436Z,0.00
2019-05-01T02:27:50.582Z,0.00
2019-05-01T02:28:50.723Z,0.00
2019-05-01T02:29:50.883Z,0.00
2019-05-01T02:30:51.010Z,0.00
2019-05-01T02:31:51.165Z,0.00
2019-05-01T02:32:52.048Z,0.00
2019-05-01T02:33:52.055Z,0.00
2019-05-01T02:34:51.761Z,0.00
2019-05-01T02:35:52.548Z,0.00
2019-05-01T02:36:52.076Z,0.00
2019-05-01T02:37:52.205Z,0.00
2019-05-01T02:38:52.407Z,0.00
2019-05-01T02:39:52.567Z,0.00
2019-05-01T02:40:52.726Z,0.00
2019-05-01T02:41:52.870Z,0.00
2019-05-01T02:42:53.028Z,0.00
2019-05-01T02:43:53.220Z,0.00
2019-05-01T02:44:53.378Z,0.00
2019-05-01T02:45:53.522Z,0.00
2019-05-01T02:46:54.706Z,0.00
2019-05-01T02:47:53.815Z,0.00
2019-05-01T02:48:53.927Z,0.00
2019-05-01T02:49:54.092Z,0.00
2019-05-01T02:50:54.245Z,0.00
2019-05-01T02:51:54.375Z,0.00
2019-05-01T02:52:54.527Z,0.00
2019-05-01T02:53:54.739Z,0.00
2019-05-01T02:54:54.916Z,0.00
2019-05-01T02:55:55.039Z,0.00
2019-05-01T02:56:55.158Z,0.00
2019-05-01T02:57:55.302Z,0.00
2019-05-01T02:58:56.036Z,0.00
2019-05-01T02:59:56.053Z,0.00
2019-05-01T03:00:55.822Z,0.00
2019-05-01T03:01:56.536Z,0.00
2019-05-01T03:02:56.187Z,0.00
2019-05-01T03:03:56.360Z,0.00
2019-05-01T03:04:56.537Z,0.00
2019-05-01T03:05:56.730Z,0.00
2019-05-01T03:06:56.864Z,0.00
2019-05-01T03:07:57.021Z,0.00
2019-05-01T03:08:57.183Z,0.00
2019-05-01T03:09:57.321Z,0.00
2019-05-01T03:10:57.489Z,0.00
2019-05-01T03:11:57.638Z,0.00
2019-05-01T03:12:57.773Z,0.00
2019-05-01T03:13:57.921Z,0.00
2019-05-01T03:14:58.066Z,0.00
2019-05-01T03:15:58.554Z,0.00
2019-05-01T03:16:58.450Z,0.00
2019-05-01T03:17:58.585Z,0.00
2019-05-01T03:18:58.692Z,0.00
2019-05-01T03:19:58.807Z,0.00
2019-05-01T03:20:59.086Z,0.00
2019-05-01T03:21:59.223Z,0.00
2019-05-01T03:22:59.391Z,0.00
2019-05-01T03:23:59.519Z,4.00
2019-05-01T03:25:00.554Z,4.00
2019-05-01T03:25:59.784Z,4.00
2019-05-01T03:26:59.941Z,4.00
2019-05-01T03:28:00.081Z,0.00
2019-05-01T03:29:00.211Z,4.00
2019-05-01T03:30:00.342Z,4.00
2019-05-01T03:31:00.481Z,4.00
2019-05-01T03:32:17.231Z,8.00
2019-05-01T03:33:02.880Z,4.00
2019-05-01T03:34:00.988Z,8.00
2019-05-01T03:35:01.144Z,8.00
2019-05-01T03:36:01.284Z,8.00
2019-05-01T03:37:01.436Z,12.00
2019-05-01T03:38:01.588Z,8.00
2019-05-01T03:39:01.753Z,12.00
2019-05-01T03:40:01.922Z,12.00
2019-05-01T03:41:02.089Z,12.00
2019-05-01T03:42:02.259Z,16.00
2019-05-01T03:43:02.480Z,16.00
2019-05-01T03:44:03.550Z,24.00
2019-05-01T03:45:02.768Z,24.00
2019-05-01T03:46:03.921Z,28.00
2019-05-01T03:47:03.152Z,32.00
2019-05-01T03:48:03.324Z,32.00
2019-05-01T03:49:03.490Z,36.00
2019-05-01T03:50:03.634Z,44.00
2019-05-01T03:51:03.755Z,44.00
2019-05-01T03:52:04.905Z,48.00
2019-05-01T03:53:04.057Z,56.00
2019-05-01T03:54:04.253Z,60.00
2019-05-01T03:55:04.432Z,68.00
2019-05-01T03:56:04.591Z,80.00
2019-05-01T03:57:04.762Z,92.00
2019-05-01T03:58:04.915Z,108.00
2019-05-01T03:59:05.546Z,120.00
2019-05-01T04:00:05.296Z,132.00
2019-05-01T04:01:05.461Z,140.00
2019-05-01T04:02:05.613Z,152.00
2019-05-01T04:03:05.745Z,172.00
2019-05-01T04:04:05.916Z,188.00
2019-05-01T04:05:06.043Z,204.00
2019-05-01T04:06:07.049Z,224.00
2019-05-01T04:07:06.427Z,244.00
2019-05-01T04:08:06.543Z,268.00
2019-05-01T04:09:06.702Z,296.00
2019-05-01T04:10:06.852Z,316.00
2019-05-01T04:11:06.997Z,336.00
2019-05-01T04:12:07.169Z,360.00
2019-05-01T04:13:07.324Z,388.00
2019-05-01T04:14:07.466Z,428.00
2019-05-01T04:15:08.621Z,460.00
2019-05-01T04:16:08.553Z,496.00
2019-05-01T04:17:07.897Z,528.00
2019-05-01T04:18:08.563Z,556.00
2019-05-01T04:19:08.153Z,584.00
2019-05-01T04:20:08.327Z,612.00
2019-05-01T04:21:08.487Z,632.00
2019-05-01T04:22:08.629Z,644.00
2019-05-01T04:23:08.766Z,660.00
2019-05-01T04:24:08.914Z,676.00
2019-05-01T04:25:09.549Z,676.00
2019-05-01T04:26:09.274Z,648.00
2019-05-01T04:27:09.398Z,632.00
2019-05-01T04:28:09.527Z,656.00
2019-05-01T04:29:09.652Z,708.00
2019-05-01T04:30:09.831Z,756.00
2019-05-01T04:31:09.969Z,796.00
2019-05-01T04:32:10.112Z,836.00
2019-05-01T04:33:10.221Z,852.00
2019-05-01T04:34:10.348Z,900.00
2019-05-01T04:35:10.498Z,920.00
2019-05-01T04:36:10.645Z,812.00
2019-05-01T04:37:10.790Z,720.00
2019-05-01T04:38:10.968Z,720.00
2019-05-01T04:39:12.051Z,720.00
2019-05-01T04:40:11.313Z,736.00
2019-05-01T04:41:11.455Z,728.00
2019-05-01T04:42:11.611Z,708.00
2019-05-01T04:43:12.546Z,688.00
2019-05-01T04:44:11.908Z,692.00
2019-05-01T04:45:12.165Z,708.00
2019-05-01T04:46:12.341Z,736.00
2019-05-01T04:47:12.465Z,736.00
2019-05-01T04:48:13.548Z,712.00
2019-05-01T04:49:12.766Z,720.00
2019-05-01T04:50:12.908Z,728.00
2019-05-01T04:51:13.063Z,732.00
2019-05-01T04:52:13.208Z,756.00
2019-05-01T04:53:13.345Z,764.00
2019-05-01T04:54:13.468Z,784.00
2019-05-01T04:55:13.590Z,804.00
2019-05-01T04:56:13.779Z,840.00
2019-05-01T04:57:13.894Z,876.00
2019-05-01T04:58:14.174Z,908.00
2019-05-01T04:59:14.318Z,932.00
2019-05-01T05:00:14.463Z,964.00
2019-05-01T05:01:15.545Z,980.00
2019-05-01T05:02:14.822Z,1028.00
2019-05-01T05:03:14.957Z,1088.00
2019-05-01T05:04:16.048Z,1152.00
2019-05-01T05:05:16.044Z,1204.00
2019-05-01T05:06:15.395Z,1192.00
2019-05-01T05:07:15.670Z,1184.00
2019-05-01T05:08:15.783Z,1196.00
2019-05-01T05:09:16.911Z,1184.00
2019-05-01T05:10:16.131Z,1228.00
2019-05-01T05:11:16.368Z,1384.00
2019-05-01T05:12:16.561Z,1372.00
2019-05-01T05:13:16.672Z,1436.00
2019-05-01T05:14:16.889Z,1472.00
2019-05-01T05:15:18.048Z,1492.00
2019-05-01T05:16:17.279Z,1520.00
2019-05-01T05:17:17.450Z,1568.00
2019-05-01T05:18:17.612Z,1636.00
2019-05-01T05:19:17.726Z,1684.00
2019-05-01T05:20:17.966Z,1700.00
2019-05-01T05:21:19.043Z,1652.00
2019-05-01T05:22:18.398Z,1664.00
2019-05-01T05:23:18.552Z,1724.00
2019-05-01T05:24:19.550Z,1708.00
2019-05-01T05:25:18.907Z,1696.00
2019-05-01T05:26:19.020Z,1680.00
2019-05-01T05:27:19.141Z,1660.00
2019-05-01T05:28:19.398Z,1692.00
2019-05-01T05:29:20.050Z,1736.00
2019-05-01T05:30:19.673Z,1804.00
2019-05-01T05:31:19.798Z,1892.00
2019-05-01T05:32:19.919Z,1944.00
2019-05-01T05:33:20.061Z,1908.00
2019-05-01T05:34:20.158Z,1908.00
2019-05-01T05:35:21.054Z,2068.00
2019-05-01T05:36:20.410Z,2024.00
2019-05-01T05:37:20.543Z,1952.00
2019-05-01T05:38:21.056Z,1976.00
2019-05-01T05:39:21.547Z,2068.00
2019-05-01T05:40:21.541Z,2120.00
2019-05-01T05:41:22.302Z,2136.00
2019-05-01T05:42:21.409Z,2236.00
2019-05-01T05:43:22.060Z,2364.00
2019-05-01T05:44:21.846Z,2624.00
2019-05-01T05:45:21.990Z,2400.00
2019-05-01T05:46:22.120Z,2244.00
2019-05-01T05:47:22.264Z,2200.00
2019-05-01T05:48:22.421Z,2140.00
2019-05-01T05:49:22.639Z,2084.00
2019-05-01T05:50:22.793Z,2112.00
2019-05-01T05:51:22.929Z,2216.00
2019-05-01T05:52:23.174Z,2252.00
2019-05-01T05:53:23.316Z,2280.00
2019-05-01T05:54:23.481Z,2068.00
2019-05-01T05:55:23.628Z,2084.00
2019-05-01T05:56:23.768Z,2092.00
2019-05-01T05:57:23.898Z,2012.00
2019-05-01T05:58:24.122Z,1984.00
2019-05-01T05:59:24.268Z,2024.00
2019-05-01T06:00:24.413Z,2064.00
2019-05-01T06:01:24.550Z,2096.00
2019-05-01T06:02:24.659Z,2108.00
2019-05-01T06:03:31.004Z,2088.00
2019-05-01T06:04:27.127Z,2080.00
2019-05-01T06:05:25.354Z,2124.00
2019-05-01T06:06:25.484Z,2132.00
2019-05-01T06:07:25.607Z,2156.00
2019-05-01T06:08:25.728Z,2240.00
2019-05-01T06:09:25.856Z,2252.00
2019-05-01T06:10:26.000Z,2316.00
2019-05-01T06:11:29.665Z,2284.00
2019-05-01T06:12:28.271Z,2196.00
2019-05-01T06:13:26.476Z,2224.00
2019-05-01T06:14:26.929Z,2272.00
2019-05-01T06:15:27.865Z,2300.00
2019-05-01T06:16:27.066Z,2344.00
2019-05-01T06:17:28.471Z,2380.00
2019-05-01T06:18:28.517Z,2436.00
2019-05-01T06:19:27.722Z,2516.00
2019-05-01T06:20:27.939Z,2580.00
2019-05-01T06:21:28.101Z,2668.00
2019-05-01T06:22:28.229Z,2856.00
2019-05-01T06:23:28.360Z,3052.00
2019-05-01T06:24:28.489Z,3008.00
2019-05-01T06:25:28.636Z,2868.00
2019-05-01T06:26:32.082Z,2912.00
2019-05-01T06:27:31.010Z,2976.00
2019-05-01T06:28:29.656Z,3004.00
2019-05-01T06:29:30.926Z,3032.00
2019-05-01T06:30:30.574Z,2952.00
2019-05-01T06:31:29.774Z,2912.00
2019-05-01T06:32:33.421Z,2884.00
2019-05-01T06:33:43.690Z,2856.00
2019-05-01T06:34:31.279Z,2904.00
2019-05-01T06:35:34.122Z,3036.00
2019-05-01T06:36:31.728Z,3236.00
2019-05-01T06:37:30.844Z,3316.00
2019-05-01T06:38:31.594Z,3292.00
2019-05-01T06:39:32.179Z,3328.00
2019-05-01T06:40:31.381Z,3388.00
2019-05-01T06:41:33.813Z,3280.00
2019-05-01T06:42:32.747Z,3288.00
2019-05-01T06:43:32.007Z,3344.00
2019-05-01T06:44:33.618Z,3272.00
2019-05-01T06:45:34.381Z,3316.00
2019-05-01T06:46:35.354Z,3488.00
2019-05-01T06:47:32.777Z,3540.00
2019-05-01T06:48:33.434Z,3504.00
2019-05-01T06:49:34.261Z,3404.00
2019-05-01T06:50:37.097Z,3312.00
2019-05-01T06:51:34.599Z,3264.00
2019-05-01T06:52:33.823Z,3324.00
2019-05-01T06:53:36.132Z,3416.00
2019-05-01T06:54:36.103Z,3536.00
2019-05-01T06:55:35.051Z,3756.00
2019-05-01T06:56:34.553Z,4028.00
2019-05-01T06:57:38.425Z,4184.00
2019-05-01T06:58:36.544Z,4204.00
2019-05-01T06:59:35.036Z,4164.00
2019-05-01T07:00:39.135Z,4328.00
2019-05-01T07:01:36.416Z,4720.00
2019-05-01T07:02:36.898Z,4984.00
2019-05-01T07:03:35.885Z,5000.00
2019-05-01T07:04:37.954Z,5016.00
2019-05-01T07:05:37.230Z,5136.00
2019-05-01T07:06:36.332Z,5380.00
2019-05-01T07:07:36.470Z,5520.00
2019-05-01T07:08:39.495Z,5484.00
2019-05-01T07:09:37.791Z,5420.00
2019-05-01T07:10:44.270Z,5552.00
2019-05-01T07:11:42.181Z,5996.00
2019-05-01T07:12:37.367Z,6068.00
2019-05-01T07:13:39.987Z,5808.00
2019-05-01T07:14:38.754Z,5664.00
2019-05-01T07:15:37.966Z,5660.00
2019-05-01T07:16:39.310Z,5792.00
2019-05-01T07:17:38.353Z,5920.00
2019-05-01T07:18:38.488Z,6076.00
2019-05-01T07:19:40.263Z,6292.00
2019-05-01T07:20:39.860Z,6604.00
2019-05-01T07:21:39.085Z,7044.00
2019-05-01T07:22:42.340Z,7248.00
2019-05-01T07:23:40.369Z,7284.00
2019-05-01T07:24:40.068Z,7720.00
2019-05-01T07:25:40.673Z,8200.00
2019-05-01T07:26:43.820Z,8320.00
2019-05-01T07:27:42.057Z,8184.00
2019-05-01T07:28:40.392Z,8200.00
2019-05-01T07:29:44.856Z,8844.00
2019-05-01T07:30:41.700Z,10156.00
2019-05-01T07:31:41.798Z,11076.00
2019-05-01T07:32:42.701Z,10624.00
2019-05-01T07:33:42.145Z,9632.00
2019-05-01T07:34:41.284Z,9680.00
2019-05-01T07:35:41.461Z,11296.00
2019-05-01T07:36:41.611Z,12316.00
2019-05-01T07:37:41.753Z,11488.00
2019-05-01T07:38:41.913Z,10280.00
2019-05-01T07:39:44.897Z,10648.00
2019-05-01T07:40:44.570Z,12420.00
2019-05-01T07:41:42.547Z,13184.00
2019-05-01T07:42:43.661Z,11616.00
2019-05-01T07:43:43.828Z,10724.00
2019-05-01T07:44:42.960Z,11472.00
2019-05-01T07:45:43.591Z,13512.00
2019-05-01T07:46:48.932Z,16256.00
2019-05-01T07:47:45.063Z,18112.00
2019-05-01T07:48:43.683Z,17920.00
2019-05-01T07:49:47.772Z,16480.00
2019-05-01T07:50:45.560Z,16416.00
2019-05-01T07:51:44.199Z,17952.00
2019-05-01T07:52:47.807Z,19520.00
2019-05-01T07:53:45.597Z,18464.00
2019-05-01T07:54:47.108Z,17088.00
2019-05-01T07:55:48.597Z,14516.00
2019-05-01T07:56:46.215Z,14496.00
2019-05-01T07:57:46.063Z,15380.00
2019-05-01T07:58:47.532Z,17120.00
2019-05-01T07:59:47.797Z,20960.00
2019-05-01T08:00:46.061Z,22720.00
2019-05-01T08:01:49.932Z,23040.00
2019-05-01T08:02:46.396Z,22976.00
2019-05-01T08:03:46.554Z,19872.00
2019-05-01T08:04:46.696Z,18496.00
2019-05-01T08:05:46.976Z,22688.00
2019-05-01T08:06:47.022Z,28672.00
2019-05-01T08:07:47.209Z,25664.00
2019-05-01T08:08:47.585Z,19456.00
2019-05-01T08:09:50.237Z,18304.00
2019-05-01T08:10:48.654Z,18272.00
2019-05-01T08:11:47.801Z,16608.00
2019-05-01T08:12:47.935Z,15628.00
2019-05-01T08:13:48.110Z,15336.00
2019-05-01T08:14:52.425Z,15536.00
2019-05-01T08:15:49.416Z,14772.00
2019-05-01T08:16:49.619Z,13028.00
2019-05-01T08:17:53.080Z,12460.00
2019-05-01T08:18:49.923Z,12784.00
2019-05-01T08:19:49.167Z,13672.00
2019-05-01T08:20:50.416Z,15052.00
2019-05-01T08:21:50.481Z,15580.00
2019-05-01T08:22:49.609Z,16128.00
2019-05-01T08:23:49.753Z,16480.00
2019-05-01T08:24:53.905Z,16576.00
2019-05-01T08:25:51.079Z,17120.00
2019-05-01T08:26:50.193Z,17056.00
2019-05-01T08:27:50.997Z,17024.00
2019-05-01T08:28:52.481Z,17792.00
2019-05-01T08:29:50.681Z,18720.00
2019-05-01T08:30:52.778Z,18656.00
2019-05-01T08:31:52.594Z,17440.00
2019-05-01T08:32:51.207Z,16640.00
2019-05-01T08:33:51.603Z,15736.00
2019-05-01T08:34:55.664Z,15428.00
2019-05-01T08:35:52.817Z,15264.00
2019-05-01T08:36:52.059Z,14004.00
2019-05-01T08:37:53.816Z,12464.00
2019-05-01T08:38:54.459Z,11600.00
2019-05-01T08:39:52.541Z,11128.00
2019-05-01T08:40:55.616Z,11236.00
2019-05-01T08:41:53.854Z,10976.00
2019-05-01T08:42:52.957Z,10856.00
2019-05-01T08:43:53.926Z,11816.00
2019-05-01T08:44:54.217Z,13480.00
2019-05-01T08:45:53.459Z,14816.00
2019-05-01T08:46:53.611Z,14408.00
2019-05-01T08:47:56.732Z,12408.00
2019-05-01T08:48:56.113Z,10700.00
2019-05-01T08:49:54.209Z,10036.00
2019-05-01T08:50:54.559Z,10344.00
2019-05-01T08:51:55.494Z,11240.00
2019-05-01T08:52:54.582Z,11916.00
2019-05-01T08:53:57.796Z,11976.00
2019-05-01T08:54:55.907Z,11720.00
2019-05-01T08:55:55.017Z,11216.00
2019-05-01T08:56:58.091Z,11096.00
2019-05-01T08:57:56.403Z,11668.00
2019-05-01T08:58:55.514Z,12560.00
2019-05-01T09:00:00.249Z,14064.00
2019-05-01T09:00:56.843Z,16480.00
2019-05-01T09:02:09.100Z,21504.00
2019-05-01T09:03:08.301Z,23904.00
2019-05-01T09:03:58.369Z,24960.00
2019-05-01T09:05:02.585Z,25120.00
2019-05-01T09:05:59.082Z,24448.00
2019-05-01T09:06:57.037Z,23424.00
2019-05-01T09:07:57.783Z,23808.00
2019-05-01T09:08:58.344Z,24288.00
2019-05-01T09:09:57.573Z,21600.00
2019-05-01T09:11:00.241Z,19584.00
2019-05-01T09:11:58.829Z,18304.00
2019-05-01T09:12:58.067Z,17728.00
2019-05-01T09:13:59.035Z,18240.00
2019-05-01T09:14:59.325Z,20800.00
2019-05-01T09:15:58.581Z,22464.00
2019-05-01T09:16:58.702Z,23104.00
2019-05-01T09:17:59.584Z,23136.00
2019-05-01T09:18:59.099Z,23968.00
2019-05-01T09:19:59.234Z,22112.00
2019-05-01T09:20:59.367Z,21280.00
2019-05-01T09:21:59.514Z,22912.00
2019-05-01T09:22:59.651Z,24256.00
2019-05-01T09:23:59.793Z,25984.00
2019-05-01T09:25:00.310Z,26656.00
2019-05-01T09:26:01.158Z,27488.00
2019-05-01T09:27:00.388Z,26048.00
2019-05-01T09:28:04.265Z,26272.00
2019-05-01T09:29:02.647Z,33344.00
2019-05-01T09:30:00.834Z,36256.00
2019-05-01T09:31:02.157Z,35520.00
2019-05-01T09:32:04.990Z,33952.00
2019-05-01T09:33:03.378Z,33568.00
2019-05-01T09:34:01.613Z,33792.00
2019-05-01T09:35:14.596Z,32224.00
2019-05-01T09:36:02.919Z,31168.00
2019-05-01T09:37:02.035Z,31232.00
2019-05-01T09:38:02.195Z,31872.00
2019-05-01T09:39:02.345Z,31232.00
2019-05-01T09:40:04.205Z,31584.00
2019-05-01T09:41:04.734Z,30080.00
2019-05-01T09:42:06.432Z,31584.00
2019-05-01T09:43:02.969Z,31776.00
2019-05-01T09:44:05.768Z,31488.00
2019-05-01T09:45:05.241Z,31936.00
2019-05-01T09:46:03.495Z,32064.00
2019-05-01T09:47:03.657Z,32608.00
2019-05-01T09:48:03.837Z,33696.00
2019-05-01T09:49:04.027Z,34176.00
2019-05-01T09:50:04.245Z,34912.00
2019-05-01T09:51:05.382Z,37280.00
2019-05-01T09:52:05.667Z,39872.00
2019-05-01T09:53:04.794Z,41280.00
2019-05-01T09:54:09.556Z,43552.00
2019-05-01T09:55:06.229Z,44960.00
2019-05-01T09:56:07.781Z,45792.00
2019-05-01T09:57:06.537Z,46144.00
2019-05-01T09:58:05.747Z,45632.00
2019-05-01T09:59:05.948Z,41984.00
2019-05-01T10:00:06.126Z,39520.00
2019-05-01T10:01:06.304Z,37536.00
2019-05-01T10:02:07.800Z,35520.00
2019-05-01T10:03:07.625Z,32384.00
2019-05-01T10:04:06.737Z,30144.00
2019-05-01T10:05:07.896Z,27840.00
2019-05-01T10:06:07.181Z,22048.00
2019-05-01T10:07:07.338Z,25536.00
2019-05-01T10:08:07.523Z,20352.00
2019-05-01T10:09:11.706Z,24096.00
2019-05-01T10:10:07.855Z,22848.00
2019-05-01T10:11:08.030Z,23680.00
2019-05-01T10:12:11.629Z,22944.00
2019-05-01T10:13:09.408Z,21696.00
2019-05-01T10:14:08.535Z,21728.00
2019-05-01T10:15:08.718Z,21280.00
2019-05-01T10:16:08.876Z,21504.00
2019-05-01T10:17:09.031Z,20096.00
2019-05-01T10:18:09.198Z,21536.00
2019-05-01T10:19:09.336Z,19616.00
2019-05-01T10:20:10.110Z,20864.00
2019-05-01T10:21:09.625Z,20480.00
2019-05-01T10:22:09.795Z,20672.00
2019-05-01T10:23:13.425Z,20448.00
2019-05-01T10:24:11.130Z,20448.00
2019-05-01T10:25:12.366Z,20832.00
2019-05-01T10:26:11.541Z,20096.00
2019-05-01T10:27:10.706Z,19328.00
2019-05-01T10:28:12.872Z,19264.00
2019-05-01T10:29:13.036Z,19712.00
2019-05-01T10:30:11.154Z,19232.00
2019-05-01T10:31:13.194Z,18656.00
2019-05-01T10:32:11.475Z,18176.00
2019-05-01T10:33:11.655Z,17888.00
2019-05-01T10:34:11.818Z,17440.00
2019-05-01T10:35:14.168Z,17216.00
2019-05-01T10:36:18.781Z,17216.00
2019-05-01T10:37:14.309Z,17440.00
2019-05-01T10:38:12.444Z,16960.00
2019-05-01T10:39:15.961Z,16704.00
2019-05-01T10:40:13.722Z,16384.00
2019-05-01T10:41:13.608Z,15944.00
2019-05-01T10:42:12.978Z,15920.00
2019-05-01T10:43:13.145Z,15792.00
2019-05-01T10:44:13.299Z,15940.00
2019-05-01T10:45:13.451Z,15632.00
2019-05-01T10:46:13.644Z,15540.00
2019-05-01T10:47:13.793Z,15360.00
2019-05-01T10:48:13.925Z,15712.00
2019-05-01T10:49:14.069Z,15576.00
2019-05-01T10:50:14.191Z,15428.00
2019-05-01T10:51:14.356Z,15676.00
2019-05-01T10:52:14.708Z,16096.00
2019-05-01T10:53:14.623Z,16544.00
2019-05-01T10:54:14.857Z,16256.00
2019-05-01T10:55:14.986Z,15396.00
2019-05-01T10:56:15.144Z,13960.00
2019-05-01T10:57:15.282Z,15296.00
2019-05-01T10:58:17.931Z,15288.00
2019-05-01T10:59:17.108Z,15192.00
2019-05-01T11:00:15.718Z,15352.00
2019-05-01T11:01:15.896Z,15600.00
2019-05-01T11:02:16.034Z,15448.00
2019-05-01T11:03:16.192Z,14712.00
2019-05-01T11:04:16.637Z,11428.00
2019-05-01T11:05:16.522Z,12140.00
2019-05-01T11:06:16.669Z,13048.00
2019-05-01T11:07:16.821Z,13612.00
2019-05-01T11:08:17.626Z,13336.00
2019-05-01T11:09:17.262Z,12808.00
2019-05-01T11:10:18.409Z,12376.00
2019-05-01T11:11:18.638Z,12444.00
2019-05-01T11:12:17.883Z,12356.00
2019-05-01T11:13:18.079Z,12380.00
2019-05-01T11:14:18.264Z,12140.00
2019-05-01T11:15:18.429Z,12124.00
2019-05-01T11:16:18.607Z,11840.00
2019-05-01T11:17:18.771Z,11656.00
2019-05-01T11:18:19.630Z,11612.00
2019-05-01T11:19:19.198Z,11804.00
2019-05-01T11:20:19.339Z,11720.00
2019-05-01T11:21:19.517Z,11584.00
2019-05-01T11:22:19.663Z,11600.00
2019-05-01T11:23:19.828Z,11408.00
2019-05-01T11:24:20.033Z,11364.00
2019-05-01T11:25:20.635Z,11224.00
2019-05-01T11:26:20.407Z,11160.00
2019-05-01T11:27:20.551Z,11124.00
2019-05-01T11:28:20.693Z,10832.00
2019-05-01T11:29:21.630Z,10668.00
2019-05-01T11:30:21.029Z,10656.00
2019-05-01T11:31:21.166Z,10880.00
2019-05-01T11:32:21.323Z,10772.00
2019-05-01T11:33:23.955Z,10724.00
2019-05-01T11:34:22.665Z,10548.00
2019-05-01T11:35:22.138Z,10416.00
2019-05-01T11:36:21.917Z,10164.00
2019-05-01T11:37:22.038Z,10096.00
2019-05-01T11:38:22.203Z,10036.00
2019-05-01T11:39:22.356Z,9944.00
2019-05-01T11:40:22.642Z,9980.00
2019-05-01T11:41:22.657Z,10024.00
2019-05-01T11:42:22.841Z,10112.00
2019-05-01T11:43:22.996Z,10148.00
2019-05-01T11:44:23.166Z,10188.00
2019-05-01T11:45:23.356Z,10180.00
2019-05-01T11:46:23.526Z,10064.00
2019-05-01T11:47:24.682Z,10064.00
2019-05-01T11:48:25.105Z,10124.00
2019-05-01T11:49:26.094Z,10016.00
2019-05-01T11:50:24.334Z,10044.00
2019-05-01T11:51:24.464Z,10028.00
2019-05-01T11:52:24.598Z,10056.00
2019-05-01T11:53:24.743Z,10144.00
2019-05-01T11:54:24.896Z,10180.00
2019-05-01T11:55:25.056Z,10144.00
2019-05-01T11:56:25.200Z,10008.00
2019-05-01T11:57:25.328Z,9924.00
2019-05-01T11:58:25.481Z,9792.00
2019-05-01T11:59:25.628Z,9908.00
2019-05-01T12:00:25.840Z,9932.00
2019-05-01T12:01:26.011Z,9948.00
2019-05-01T12:02:26.191Z,9972.00
2019-05-01T12:03:26.348Z,9960.00
2019-05-01T12:04:26.501Z,9968.00
2019-05-01T12:05:26.670Z,9968.00
2019-05-01T12:06:26.861Z,9816.00
2019-05-01T12:07:27.041Z,9732.00
2019-05-01T12:08:27.197Z,9828.00
2019-05-01T12:09:27.365Z,9864.00
2019-05-01T12:10:27.529Z,9640.00
2019-05-01T12:11:27.686Z,9436.00
2019-05-01T12:12:27.824Z,9292.00
2019-05-01T12:13:27.985Z,9332.00
2019-05-01T12:14:28.126Z,9348.00
2019-05-01T12:15:28.249Z,9216.00
2019-05-01T12:16:28.650Z,9320.00
2019-05-01T12:17:29.148Z,9308.00
2019-05-01T12:18:28.793Z,9452.00
2019-05-01T12:19:29.038Z,9416.00
2019-05-01T12:20:29.190Z,9284.00
2019-05-01T12:21:29.348Z,8936.00
2019-05-01T12:22:30.145Z,9092.00